Data for 10/28/2013

Time Sea-Level Adjusted Pressure Absolute Pressure Temperature Relative Humidity Dew Point   
(mb) (inHg) (mb) (inHg) (C) (F) (%) (C) (F)
00:05 1017 30.03 847 25.01 0.3 32.6 80 -2.7 27.1
00:10 1017 30.03 847 25.01 0.2 32.3 81 -2.8 27
00:15 1017 30.03 847 25.01 0.1 32.3 81 -2.8 27
00:20 1017 30.03 847 25.01 0.2 32.3 80 -2.9 26.9
00:25 1017 30.03 847 25.01 -0 31.9 80 -3 26.6
00:30 1018 30.06 847 25.01 -0.1 31.7 80 -3.1 26.3
00:35 1018 30.06 847 25.01 -0.3 31.5 80 -3.3 26
00:40 1018 30.06 847 25.01 -0.3 31.4 79 -3.6 25.6
00:45 1018 30.06 847 25.01 -0.4 31.3 80 -3.5 25.8
00:50 1018 30.06 847 25.01 -0.6 30.9 82 -3.4 25.9
00:55 1018 30.06 847 25.01 -0.8 30.5 82 -3.5 25.8
01:00 1018 30.06 847 25.01 -1 30.2 82 -3.7 25.4
01:05 1018 30.06 847 25.01 -1.1 30 81 -3.9 24.9
01:10 1018 30.06 847 25.01 -1 30.2 79 -4.2 24.4
01:15 1018 30.06 847 25.01 -0.9 30.4 77 -4.4 24.1
01:20 1018 30.06 847 25.01 -0.8 30.5 75 -4.6 23.6
01:25 1018 30.06 847 25.01 -0.9 30.5 75 -4.8 23.4
01:30 1018 30.06 847 25.01 -0.9 30.4 74 -4.9 23.1
01:35 1018 30.06 847 25.01 -0.9 30.4 73 -5.2 22.7
01:40 1018 30.06 847 25.01 -0.9 30.4 73 -5.2 22.7
01:45 1018 30.06 847 25.01 -0.9 30.3 73 -5.3 22.5
01:50 1018 30.06 847 25.01 -1 30.2 71 -5.5 22.1
01:55 1018 30.06 847 25.01 -1 30.3 72 -5.4 22.2
02:00 1018 30.06 847 25.01 -1 30.3 71 -5.6 21.9
02:05 1018 30.06 847 25.01 -1 30.2 72 -5.5 22.1
02:10 1017 30.03 847 25.01 -1.1 30 71 -5.7 21.8
02:15 1017 30.03 847 25.01 -1 30.2 69 -5.9 21.3
02:20 1017 30.03 847 25.01 -0.9 30.3 69 -5.8 21.5
02:25 1017 30.03 847 25.01 -1 30.3 69 -6 21.2
02:30 1017 30.03 847 25.01 -1 30.2 68 -6.2 20.8
02:35 1017 30.03 847 25.01 -1 30.1 68 -6.3 20.7
02:40 1017 30.03 847 25.01 -1.1 30.1 68 -6.3 20.6
02:45 1017 30.03 846 24.98 -1.1 30.1 67 -6.5 20.3
02:50 1017 30.03 846 24.98 -1.1 30.1 67 -6.5 20.3
02:55 1017 30.03 846 24.98 -1.1 30 67 -6.6 20.2
03:00 1017 30.03 846 24.98 -1.1 30 66 -6.7 19.9
03:05 1017 30.03 847 25.01 -1.1 29.9 66 -6.7 20
03:10 1017 30.03 847 25.01 -1.2 29.8 65 -6.9 19.6
03:15 1018 30.06 847 25.01 -1.3 29.7 67 -6.6 20.1
03:20 1018 30.06 847 25.01 -1.5 29.3 68 -6.7 20
03:25 1018 30.06 847 25.01 -1.5 29.3 66 -7.1 19.3
03:30 1018 30.06 847 25.01 -1.5 29.3 65 -7.2 19
03:35 1018 30.06 847 25.01 -1.6 29.1 66 -7.3 18.9
03:40 1018 30.06 847 25.01 -1.6 29.1 65 -7.3 18.8
03:45 1018 30.06 847 25.01 -1.7 28.9 66 -7.3 18.9
03:50 1018 30.06 847 25.01 -1.7 28.9 65 -7.5 18.5
03:55 1018 30.06 847 25.01 -1.8 28.8 66 -7.4 18.7
04:00 1018 30.06 847 25.01 -1.8 28.8 65 -7.6 18.4
04:05 1018 30.06 847 25.01 -1.8 28.8 65 -7.5 18.4
04:10 1018 30.06 847 25.01 -1.8 28.8 65 -7.5 18.6
04:15 1018 30.06 847 25.01 -1.9 28.6 65 -7.6 18.4
04:20 1018 30.06 847 25.01 -1.9 28.5 65 -7.7 18.2
04:25 1018 30.06 847 25.01 -2 28.5 65 -7.6 18.3
04:30 1018 30.06 847 25.01 -2.1 28.3 66 -7.5 18.4
04:35 1018 30.06 847 25.01 -2.2 28 67 -7.5 18.4
04:40 1018 30.06 847 25.01 -2.3 27.9 67 -7.6 18.4
04:45 1018 30.06 847 25.01 -2.2 28 67 -7.5 18.4
04:50 1018 30.06 847 25.01 -2.3 27.8 68 -7.5 18.5
04:55 1018 30.06 847 25.01 -2.4 27.8 68 -7.5 18.6
05:00 1018 30.06 847 25.01 -2.4 27.6 69 -7.3 18.8
05:05 1018 30.06 847 25.01 -2.5 27.5 70 -7.2 19
05:10 1018 30.06 847 25.01 -2.6 27.3 71 -7.2 19.1
05:15 1018 30.06 847 25.01 -2.6 27.4 70 -7.3 18.9
05:20 1018 30.06 847 25.01 -2.5 27.5 70 -7.2 19
05:25 1018 30.06 847 25.01 -2.5 27.5 70 -7.3 18.9
05:30 1018 30.06 847 25.01 -2.5 27.5 71 -7.2 19.1
05:35 1018 30.06 847 25.01 -2.5 27.4 70 -7.2 19
05:40 1018 30.06 847 25.01 -2.6 27.3 71 -7.2 19.1
05:45 1018 30.06 847 25.01 -2.6 27.3 72 -7.1 19.2
05:50 1018 30.06 847 25.01 -2.7 27.1 72 -7.1 19.3
05:55 1018 30.06 847 25.01 -2.8 27 72 -7.2 19.1
06:00 1017 30.03 847 25.01 -2.8 27 72 -7.2 19
06:05 1017 30.03 847 25.01 -2.8 27 71 -7.3 18.9
06:10 1017 30.03 847 25.01 -2.8 27 71 -7.3 18.9
06:15 1017 30.03 847 25.01 -2.8 26.9 72 -7.2 19
06:20 1017 30.03 847 25.01 -2.9 26.9 72 -7.3 18.8
06:25 1017 30.03 847 25.01 -2.9 26.8 72 -7.3 18.8
06:30 1018 30.06 847 25.01 -2.9 26.8 72 -7.3 18.8
06:35 1018 30.06 847 25.01 -2.9 26.8 72 -7.4 18.8
06:40 1018 30.06 847 25.01 -2.9 26.8 73 -7.2 19.1
06:45 1018 30.06 847 25.01 -2.9 26.7 73 -7.1 19.2
06:50 1018 30.06 847 25.01 -3 26.6 74 -6.9 19.5
06:55 1018 30.06 847 25.01 -3.1 26.4 74 -7 19.3
07:00 1018 30.06 847 25.01 -3.2 26.2 76 -6.9 19.6
07:05 1018 30.06 847 25.01 -3.3 26 77 -6.7 19.9
07:10 1018 30.06 847 25.01 -3.4 25.8 78 -6.8 19.7
07:15 1018 30.06 847 25.01 -3.4 25.8 78 -6.7 19.9
07:20 1018 30.06 847 25.01 -3.5 25.8 77 -6.9 19.5
07:25 1018 30.06 847 25.01 -3.4 25.8 77 -6.9 19.5
07:30 1018 30.06 847 25.01 -3.4 25.9 75 -7.2 19.1
07:35 1018 30.06 847 25.01 -3.3 26.1 72 -7.6 18.4
07:40 1018 30.06 847 25.01 -3.2 26.3 71 -7.7 18.2
07:45 1018 30.06 847 25.01 -3.2 26.3 71 -7.6 18.2
07:50 1018 30.06 847 25.01 -3.3 26.1 72 -7.6 18.3
07:55 1018 30.06 847 25.01 -3.4 25.9 73 -7.5 18.5
08:00 1018 30.06 847 25.01 -3.4 25.8 74 -7.5 18.6
08:05 1018 30.06 847 25.01 -3.4 25.9 74 -7.4 18.6
08:10 1018 30.06 847 25.01 -3.4 25.9 74 -7.3 18.8
08:15 1018 30.06 847 25.01 -3.5 25.8 75 -7.4 18.8
08:20 1018 30.06 847 25.01 -3.5 25.6 76 -7.2 19
08:25 1018 30.06 847 25.01 -3.6 25.5 75 -7.4 18.6
08:30 1018 30.06 847 25.01 -3.6 25.5 75 -7.5 18.5
08:35 1018 30.06 847 25.01 -3.6 25.6 73 -7.8 18
08:40 1018 30.06 847 25.01 -3.5 25.7 71 -8 17.6
08:45 1018 30.06 847 25.01 -3.4 25.9 71 -8 17.6
08:50 1018 30.06 847 25.01 -3.4 25.9 71 -8 17.6
08:55 1018 30.06 847 25.01 -3.3 26 71 -8 17.7
09:00 1018 30.06 847 25.01 -3.4 25.9 71 -8 17.6
09:05 1018 30.06 847 25.01 -3.4 25.9 71 -7.9 17.8
09:10 1018 30.06 847 25.01 -3.4 26 72 -7.7 18.1
09:15 1018 30.06 847 25.01 -3.4 25.9 72 -7.7 18.1
09:20 1018 30.06 847 25.01 -3.4 25.8 73 -7.6 18.3
09:25 1018 30.06 847 25.01 -3.4 25.9 73 -7.6 18.3
09:30 1018 30.06 847 25.01 -3.4 25.9 71 -7.9 17.8
09:35 1018 30.06 847 25.01 -3.3 26 71 -7.8 18
09:40 1018 30.06 847 25.01 -3.3 26.1 69 -8.1 17.5
09:45 1018 30.06 847 25.01 -3.2 26.2 70 -7.9 17.7
09:50 1018 30.06 847 25.01 -3.1 26.4 68 -8.2 17.3
09:55 1018 30.06 847 25.01 -3.1 26.5 67 -8.3 17.1
10:00 1018 30.06 847 25.01 -2.9 26.7 67 -8.3 17.1
10:05 1018 30.06 847 25.01 -3 26.6 68 -8.2 17.3
10:10 1018 30.06 847 25.01 -3.1 26.4 67 -8.3 17.1
10:15 1018 30.06 847 25.01 -3 26.6 67 -8.4 16.9
10:20 1018 30.06 847 25.01 -3 26.6 67 -8.3 17.1
10:25 1018 30.06 847 25.01 -3 26.6 67 -8.2 17.2
10:30 1018 30.06 847 25.01 -3 26.7 65 -8.6 16.5
10:35 1018 30.06 847 25.01 -3 26.6 66 -8.4 16.8
10:40 1018 30.06 847 25.01 -2.9 26.8 66 -8.4 16.9
10:45 1018 30.06 847 25.01 -2.8 27 65 -8.4 16.8
10:50 1018 30.06 847 25.01 -2.7 27.1 65 -8.5 16.7
10:55 1018 30.06 847 25.01 -2.6 27.4 62 -8.9 16
11:00 1018 30.06 847 25.01 -2.6 27.3 64 -8.5 16.6
11:05 1018 30.06 847 25.01 -2.5 27.5 63 -8.6 16.5
11:10 1018 30.06 847 25.01 -2.6 27.3 63 -8.7 16.3
11:15 1018 30.06 847 25.01 -2.7 27.1 64 -8.6 16.5
11:20 1018 30.06 847 25.01 -2.7 27.1 64 -8.6 16.5
11:25 1018 30.06 847 25.01 -2.5 27.5 62 -8.9 16
11:30 1018 30.06 847 25.01 -2.4 27.7 61 -8.8 16.1
11:35 1018 30.06 847 25.01 -2.4 27.8 63 -8.5 16.8
11:40 1018 30.06 847 25.01 -2.6 27.4 62 -8.9 16
11:45 1018 30.06 847 25.01 -2.6 27.2 64 -8.6 16.5
11:50 1018 30.06 847 25.01 -3 26.6 64 -8.8 16.2
11:55 1018 30.06 847 25.01 -3.1 26.4 64 -8.9 16
12:00 1018 30.06 847 25.01 -3.1 26.4 65 -8.8 16.1
12:05 1018 30.06 847 25.01 -3.1 26.4 66 -8.6 16.4
12:10 1017 30.03 847 25.01 -3.1 26.4 65 -8.8 16.2
12:15 1018 30.06 847 25.01 -3 26.6 66 -8.5 16.6
12:20 1018 30.06 847 25.01 -3 26.5 66 -8.5 16.7
12:25 1018 30.06 847 25.01 -3.1 26.5 65 -8.7 16.4
12:30 1018 30.06 847 25.01 -3 26.6 66 -8.4 16.8
12:35 1018 30.06 847 25.01 -3.3 26 68 -8.5 16.7
12:40 1017 30.03 847 25.01 -3.6 25.5 69 -8.4 16.9
12:45 1017 30.03 847 25.01 -3.7 25.4 69 -8.5 16.6
12:50 1017 30.03 846 24.98 -3.8 25.1 69 -8.7 16.3
12:55 1017 30.03 846 24.98 -3.8 25.1 70 -8.6 16.6
13:00 1017 30.03 846 24.98 -3.9 25 70 -8.6 16.5
13:05 1017 30.03 846 24.98 -3.9 24.9 70 -8.6 16.6
13:10 1017 30.03 846 24.98 -3.9 24.9 70 -8.6 16.6
13:15 1017 30.03 846 24.98 -4 24.8 70 -8.6 16.5
13:20 1017 30.03 846 24.98 -3.8 25.1 71 -8.4 16.8
13:25 1017 30.03 846 24.98 -3.8 25.2 69 -8.6 16.4
13:30 1017 30.03 846 24.98 -4 24.8 70 -8.8 16.2
13:35 1017 30.03 846 24.98 -4 24.8 70 -8.7 16.3
13:40 1017 30.03 846 24.98 -4.1 24.7 71 -8.6 16.6
13:45 1017 30.03 846 24.98 -4 24.8 69 -8.9 16
13:50 1017 30.03 846 24.98 -4.1 24.7 68 -9.1 15.6
13:55 1017 30.03 846 24.98 -4 24.8 67 -9.3 15.2
14:00 1017 30.03 846 24.98 -3.7 25.3 64 -9.5 14.8
14:05 1017 30.03 846 24.98 -3.7 25.4 63 -9.7 14.6
14:10 1017 30.03 846 24.98 -3.8 25.2 63 -9.8 14.4
14:15 1017 30.03 846 24.98 -3.7 25.3 62 -10 14.1
14:20 1017 30.03 846 24.98 -3.6 25.6 61 -10.1 13.9
14:25 1017 30.03 846 24.98 -3.6 25.5 61 -10.1 13.8
14:30 1017 30.03 846 24.98 -3.7 25.3 61 -10.2 13.6
14:35 1017 30.03 846 24.98 -3.7 25.4 61 -10.2 13.6
14:40 1017 30.03 846 24.98 -3.9 25 62 -10.1 13.8
14:45 1017 30.03 846 24.98 -4 24.8 62 -10.2 13.7
14:50 1017 30.03 846 24.98 -3.9 25 62 -10 13.9
14:55 1017 30.03 846 24.98 -3.9 25 63 -9.9 14.3
15:00 1017 30.03 846 24.98 -4 24.8 65 -9.6 14.7
15:05 1017 30.03 847 25.01 -4.3 24.3 65 -9.9 14.3
15:10 1017 30.03 846 24.98 -4.4 24.1 66 -9.8 14.4
15:15 1017 30.03 846 24.98 -4.5 23.9 68 -9.6 14.7
15:20 1017 30.03 846 24.98 -4.8 23.3 69 -9.6 14.7
15:25 1017 30.03 846 24.98 -4.9 23.1 70 -9.6 14.7
15:30 1017 30.03 846 24.98 -5 23 70 -9.6 14.7
15:35 1017 30.03 846 24.98 -5.1 22.8 72 -9.4 15
15:40 1017 30.03 846 24.98 -5.1 22.8 71 -9.5 14.9
15:45 1017 30.03 846 24.98 -5.1 22.8 72 -9.4 15
15:50 1017 30.03 846 24.98 -5 23 72 -9.3 15.2
15:55 1017 30.03 846 24.98 -5.2 22.7 73 -9.3 15.3
16:00 1017 30.03 847 25.01 -5.3 22.5 74 -9.3 15.3
16:05 1017 30.03 847 25.01 -5.4 22.3 75 -9.2 15.5
16:10 1017 30.03 846 24.98 -5.5 22.2 76 -9.1 15.6
16:15 1017 30.03 846 24.98 -5.6 22 77 -9.1 15.7
16:20 1017 30.03 846 24.98 -5.7 21.8 77 -9.1 15.7
16:25 1017 30.03 846 24.98 -5.7 21.7 78 -9 15.8
16:30 1017 30.03 846 24.98 -5.7 21.8 77 -9.1 15.7
16:35 1017 30.03 846 24.98 -5.7 21.7 78 -9 15.9
16:40 1017 30.03 846 24.98 -5.8 21.5 78 -9 15.8
16:45 1017 30.03 846 24.98 -5.8 21.5 78 -9.1 15.6
16:50 1017 30.03 846 24.98 -5.8 21.5 78 -9.1 15.6
16:55 1017 30.03 846 24.98 -5.9 21.4 79 -9.1 15.7
17:00 1017 30.03 846 24.98 -6 21.2 79 -9 15.7
17:05 1017 30.03 847 25.01 -6 21.1 79 -9.1 15.7
17:10 1017 30.03 847 25.01 -6.1 21.1 79 -9.1 15.6
17:15 1017 30.03 847 25.01 -6.1 21.1 79 -9.1 15.5
17:20 1017 30.03 847 25.01 -6.2 20.9 79 -9.2 15.5
17:25 1017 30.03 847 25.01 -6.2 20.8 80 -9.1 15.6
17:30 1017 30.03 847 25.01 -6.3 20.7 80 -9.2 15.5
17:35 1017 30.03 847 25.01 -6.3 20.7 80 -9.3 15.3
17:40 1017 30.03 847 25.01 -6.3 20.6 80 -9.3 15.2
17:45 1018 30.06 847 25.01 -6.4 20.6 80 -9.3 15.3
17:50 1018 30.06 847 25.01 -6.4 20.5 81 -9.2 15.4
17:55 1017 30.03 847 25.01 -6.4 20.4 80 -9.3 15.3
18:00 1018 30.06 847 25.01 -6.4 20.4 80 -9.3 15.2
18:05 1018 30.06 847 25.01 -6.4 20.5 80 -9.3 15.2
18:10 1018 30.06 847 25.01 -6.4 20.5 80 -9.3 15.3
18:15 1017 30.03 847 25.01 -6.5 20.3 81 -9.3 15.3
18:20 1018 30.06 847 25.01 -6.5 20.4 80 -9.3 15.3
18:25 1018 30.06 847 25.01 -6.5 20.4 80 -9.3 15.2
18:30 1018 30.06 847 25.01 -6.4 20.5 80 -9.3 15.3
18:35 1018 30.06 847 25.01 -6.4 20.5 79 -9.4 15
18:40 1018 30.06 847 25.01 -6.4 20.5 78 -9.6 14.8
18:45 1018 30.06 847 25.01 -6.4 20.5 79 -9.6 14.8
18:50 1018 30.06 847 25.01 -6.4 20.5 78 -9.6 14.7
18:55 1018 30.06 847 25.01 -6.4 20.5 77 -9.7 14.5
19:00 1017 30.03 847 25.01 -6.3 20.6 77 -9.7 14.6
19:05 1017 30.03 847 25.01 -6.4 20.5 77 -9.7 14.5
19:10 1017 30.03 847 25.01 -6.4 20.5 78 -9.6 14.7
19:15 1017 30.03 847 25.01 -6.4 20.5 78 -9.7 14.6
19:20 1017 30.03 847 25.01 -6.4 20.5 78 -9.7 14.6
19:25 1017 30.03 847 25.01 -6.4 20.5 78 -9.6 14.7
19:30 1017 30.03 847 25.01 -6.4 20.4 78 -9.6 14.7
19:35 1018 30.06 847 25.01 -6.4 20.5 78 -9.7 14.6
19:40 1018 30.06 847 25.01 -6.4 20.5 78 -9.7 14.6
19:45 1018 30.06 847 25.01 -6.3 20.6 78 -9.6 14.7
19:50 1018 30.06 847 25.01 -6.4 20.5 79 -9.5 14.9
19:55 1018 30.06 847 25.01 -6.5 20.3 79 -9.5 14.9
20:00 1018 30.06 847 25.01 -6.5 20.3 80 -9.5 15
20:05 1018 30.06 847 25.01 -6.6 20.2 79 -9.5 14.8
20:10 1018 30.06 847 25.01 -6.5 20.3 79 -9.5 14.8
20:15 1018 30.06 847 25.01 -6.5 20.3 79 -9.6 14.8
20:20 1018 30.06 847 25.01 -6.5 20.3 79 -9.6 14.7
20:25 1018 30.06 847 25.01 -6.5 20.3 79 -9.6 14.7
20:30 1018 30.06 847 25.01 -6.5 20.3 79 -9.6 14.7
20:35 1018 30.06 847 25.01 -6.5 20.3 79 -9.6 14.8
20:40 1018 30.06 847 25.01 -6.5 20.3 79 -9.6 14.8
20:45 1018 30.06 847 25.01 -6.5 20.3 79 -9.6 14.7
20:50 1018 30.06 848 25.04 -6.5 20.2 78 -9.7 14.6
20:55 1018 30.06 848 25.04 -6.5 20.2 79 -9.6 14.8
21:00 1019 30.09 848 25.04 -6.5 20.2 79 -9.5 14.8
21:05 1019 30.09 848 25.04 -6.6 20.2 79 -9.6 14.8
21:10 1019 30.09 848 25.04 -6.6 20.2 80 -9.5 14.9
21:15 1019 30.09 848 25.04 -6.6 20.1 80 -9.5 14.9
21:20 1019 30.09 848 25.04 -6.6 20.1 80 -9.5 14.9
21:25 1019 30.09 848 25.04 -6.6 20 81 -9.4 15
21:30 1019 30.09 848 25.04 -6.8 19.8 82 -9.4 15.1
21:35 1019 30.09 848 25.04 -6.8 19.8 82 -9.4 15
21:40 1019 30.09 848 25.04 -6.8 19.8 82 -9.4 15.1
21:45 1018 30.06 848 25.04 -6.8 19.8 82 -9.3 15.2
21:50 1018 30.06 848 25.04 -6.8 19.7 82 -9.3 15.2
21:55 1018 30.06 847 25.01 -6.9 19.7 84 -9.2 15.5
22:00 1018 30.06 847 25.01 -7 19.5 84 -9.3 15.3
22:05 1018 30.06 847 25.01 -6.9 19.5 84 -9.1 15.6
22:10 1018 30.06 847 25.01 -7 19.4 85 -9.1 15.6
22:15 1018 30.06 847 25.01 -7 19.3 86 -9 15.8
22:20 1018 30.06 847 25.01 -7 19.3 86 -9.1 15.7
22:25 1018 30.06 847 25.01 -7.1 19.3 86 -9 15.7
22:30 1018 30.06 847 25.01 -7.1 19.2 86 -9 15.8
22:35 1018 30.06 847 25.01 -7.1 19.2 87 -9 15.9
22:40 1018 30.06 847 25.01 -7.2 19.1 87 -8.9 15.9
22:45 1018 30.06 847 25.01 -7.1 19.1 87 -9 15.9
22:50 1018 30.06 847 25.01 -7.2 19.1 88 -8.9 16
22:55 1018 30.06 847 25.01 -7.2 19 88 -8.9 16
23:00 1018 30.06 847 25.01 -7.3 19 89 -8.8 16.1
23:05 1017 30.03 847 25.01 -7.3 18.8 89 -8.9 16
23:10 1017 30.03 846 24.98 -7.3 18.8 89 -8.9 16
23:15 1017 30.03 847 25.01 -7.3 18.8 89 -8.8 16.1
23:20 1017 30.03 847 25.01 -7.3 18.8 89 -8.8 16.2
23:25 1017 30.03 847 25.01 -7.4 18.8 90 -8.8 16.2
23:30 1018 30.06 847 25.01 -7.4 18.8 90 -8.8 16.2
23:35 1017 30.03 847 25.01 -7.4 18.8 90 -8.8 16.2
23:40 1017 30.03 847 25.01 -7.4 18.8 90 -8.8 16.2
23:45 1017 30.03 847 25.01 -7.4 18.8 89 -8.8 16.1
23:50 1017 30.03 847 25.01 -7.3 18.9 89 -8.9 16
23:55 1017 30.03 847 25.01 -7.3 18.9 88 -8.9 16
24:00 1017 30.03 847 25.01 -7.3 18.8 88 -8.9 15.9